createdAt,value
2022-08-27T00:00:02.863Z,88.1
2022-08-27T00:03:02.792Z,88.1
2022-08-27T00:06:02.785Z,88.1
2022-08-27T00:09:02.897Z,88.8
2022-08-27T00:12:02.799Z,88.8
2022-08-27T00:15:02.774Z,88.8
2022-08-27T00:18:02.786Z,88.8
2022-08-27T00:21:02.811Z,88.8
2022-08-27T00:24:02.765Z,88.8
2022-08-27T00:27:02.791Z,88.8
2022-08-27T00:30:02.843Z,88.8
2022-08-27T00:33:02.816Z,88.8
2022-08-27T00:36:02.776Z,88.8
2022-08-27T00:39:02.845Z,88.8
2022-08-27T00:42:02.784Z,88.8
2022-08-27T00:45:02.753Z,88.8
2022-08-27T00:48:02.881Z,88.8
2022-08-27T00:51:02.797Z,88.8
2022-08-27T00:54:02.832Z,88.8
2022-08-27T00:57:02.756Z,88.8
2022-08-27T01:00:02.798Z,88.8
2022-08-27T01:03:02.898Z,88.7
2022-08-27T01:06:02.906Z,88.7
2022-08-27T01:09:02.844Z,88.7
2022-08-27T01:12:02.792Z,88.7
2022-08-27T01:15:02.787Z,88.7
2022-08-27T01:18:02.860Z,88.5
2022-08-27T01:21:02.835Z,88.5
2022-08-27T01:24:02.825Z,88.5
2022-08-27T01:27:02.771Z,88.5
2022-08-27T01:30:02.827Z,88.5
2022-08-27T01:33:02.779Z,88.5
2022-08-27T01:36:02.812Z,88.5
2022-08-27T01:39:02.854Z,88.5
2022-08-27T01:42:02.838Z,88.5
2022-08-27T01:45:03.728Z,88.5
2022-08-27T01:48:02.797Z,88.5
2022-08-27T01:51:02.814Z,88.5
2022-08-27T01:54:02.952Z,88.5
2022-08-27T01:57:02.764Z,88.3
2022-08-27T02:00:02.802Z,88.3
2022-08-27T02:03:02.848Z,88.3
2022-08-27T02:06:02.837Z,88.3
2022-08-27T02:09:02.790Z,88.3
2022-08-27T02:12:02.905Z,88.3
2022-08-27T02:15:02.918Z,88.3
2022-08-27T02:18:02.920Z,88.3
2022-08-27T02:21:02.790Z,88.3
2022-08-27T02:24:02.771Z,88.3
2022-08-27T02:27:02.771Z,88.3
2022-08-27T02:30:02.864Z,88.3
2022-08-27T02:33:02.794Z,88.3
2022-08-27T02:36:04.566Z,88.3
2022-08-27T02:39:02.817Z,88.3
2022-08-27T02:42:02.834Z,88.3
2022-08-27T02:45:02.888Z,88.3
2022-08-27T02:48:02.797Z,88.3
2022-08-27T02:51:02.816Z,88.3
2022-08-27T02:54:04.117Z,88.5
2022-08-27T02:57:02.808Z,88.5
2022-08-27T03:00:02.846Z,88.5
2022-08-27T03:03:03.063Z,88.5
2022-08-27T03:06:02.734Z,88.5
2022-08-27T03:09:02.809Z,88.5
2022-08-27T03:12:02.815Z,88.5
2022-08-27T03:15:02.845Z,88.5
2022-08-27T03:18:02.858Z,88.5
2022-08-27T03:21:02.785Z,88.5
2022-08-27T03:24:14.512Z,88.5
2022-08-27T03:27:02.789Z,88.5
2022-08-27T03:30:06.362Z,88.5
2022-08-27T03:33:02.796Z,88.5
2022-08-27T03:36:02.799Z,88.5
2022-08-27T03:39:03.473Z,88.5
2022-08-27T03:42:02.797Z,88.5
2022-08-27T03:45:02.771Z,88.5
2022-08-27T03:48:02.778Z,88.5
2022-08-27T03:51:02.825Z,88.5
2022-08-27T03:54:04.447Z,88.5
2022-08-27T03:57:02.795Z,88.6
2022-08-27T04:00:02.939Z,88.6
2022-08-27T04:03:02.941Z,88.6
2022-08-27T04:06:02.873Z,88.7
2022-08-27T04:09:02.821Z,88.7
2022-08-27T04:12:02.816Z,88.7
2022-08-27T04:15:02.754Z,88.7
2022-08-27T04:18:04.592Z,88.7
2022-08-27T04:21:02.751Z,88.7
2022-08-27T04:24:02.844Z,88.7
2022-08-27T04:27:02.786Z,88.7
2022-08-27T04:30:02.832Z,88.7
2022-08-27T04:33:02.804Z,88.7
2022-08-27T04:36:02.803Z,88.7
2022-08-27T04:39:02.739Z,88.7
2022-08-27T04:42:02.835Z,88.7
2022-08-27T04:45:02.791Z,88.7
2022-08-27T04:48:02.928Z,88.7
2022-08-27T04:51:04.260Z,88.7
2022-08-27T04:54:03.369Z,87.6
2022-08-27T04:57:02.839Z,87.6
2022-08-27T05:00:02.802Z,87.6
2022-08-27T05:03:02.769Z,87.6
2022-08-27T05:06:02.845Z,87.6
2022-08-27T05:09:02.898Z,87.6
2022-08-27T05:12:02.803Z,87.6
2022-08-27T05:15:02.783Z,87.6
2022-08-27T05:18:02.832Z,87.6
2022-08-27T05:21:02.810Z,87.2
2022-08-27T05:24:02.792Z,87.2
2022-08-27T05:27:03.586Z,87.2
2022-08-27T05:30:03.111Z,87.2
2022-08-27T05:33:02.764Z,87.2
2022-08-27T05:36:02.833Z,87.2
2022-08-27T05:39:02.752Z,87.2
2022-08-27T05:42:02.879Z,87.2
2022-08-27T05:45:02.773Z,87.2
2022-08-27T05:48:03.015Z,88.6
2022-08-27T05:51:02.745Z,88.6
2022-08-27T05:54:05.694Z,88.6
2022-08-27T05:57:02.810Z,88.6
2022-08-27T06:00:02.875Z,88.6
2022-08-27T06:03:02.926Z,88.6
2022-08-27T06:06:02.772Z,88.6
2022-08-27T06:09:02.848Z,88.6
2022-08-27T06:12:02.809Z,88.6
2022-08-27T06:15:02.768Z,88.6
2022-08-27T06:18:02.838Z,88.6
2022-08-27T06:21:02.792Z,88.6
2022-08-27T06:24:02.836Z,88.6
2022-08-27T06:27:02.753Z,88.6
2022-08-27T06:30:02.914Z,88.6
2022-08-27T06:33:02.769Z,88.6
2022-08-27T06:36:02.828Z,88.6
2022-08-27T06:39:02.858Z,88.6
2022-08-27T06:42:02.806Z,88.6
2022-08-27T06:45:02.776Z,89.2
2022-08-27T06:48:02.813Z,89.2
2022-08-27T06:51:02.879Z,89.2
2022-08-27T06:54:02.905Z,89.2
2022-08-27T06:57:02.893Z,89.2
2022-08-27T07:00:02.898Z,88.7
2022-08-27T07:03:02.825Z,88.7
2022-08-27T07:06:02.801Z,88.7
2022-08-27T07:09:02.864Z,88.7
2022-08-27T07:12:02.779Z,88.7
2022-08-27T07:15:02.837Z,88.7
2022-08-27T07:18:02.958Z,88.7
2022-08-27T07:21:02.820Z,88.7
2022-08-27T07:24:02.769Z,88.7
2022-08-27T07:27:02.835Z,88.7
2022-08-27T07:30:04.058Z,87.5
2022-08-27T07:33:02.810Z,87.5
2022-08-27T07:36:02.771Z,87.5
2022-08-27T07:39:04.301Z,87.5
2022-08-27T07:42:02.836Z,87.5
2022-08-27T07:45:03.369Z,86.5
2022-08-27T07:48:02.831Z,86.5
2022-08-27T07:51:02.877Z,86.5
2022-08-27T07:54:02.755Z,86.5
2022-08-27T07:57:02.833Z,86.5
2022-08-27T08:00:02.792Z,86.5
2022-08-27T08:03:02.798Z,86.5
2022-08-27T08:06:02.825Z,86.5
2022-08-27T08:09:02.799Z,86.5
2022-08-27T08:12:02.848Z,86.5
2022-08-27T08:15:02.872Z,86.5
2022-08-27T08:18:02.881Z,86.5
2022-08-27T08:21:02.918Z,86.5
2022-08-27T08:24:02.860Z,86.5
2022-08-27T08:27:09.616Z,86.2
2022-08-27T08:30:02.881Z,86.2
2022-08-27T08:33:02.834Z,86.2
2022-08-27T08:36:02.815Z,86.5
2022-08-27T08:39:02.806Z,86.5
2022-08-27T08:42:02.824Z,86.5
2022-08-27T08:45:02.796Z,86.5
2022-08-27T08:48:02.928Z,86.5
2022-08-27T08:51:05.001Z,86.5
2022-08-27T08:54:02.820Z,86.5
2022-08-27T08:57:02.911Z,86.5
2022-08-27T09:00:02.875Z,86.5
2022-08-27T09:03:02.779Z,86.5
2022-08-27T09:06:02.796Z,86.5
2022-08-27T09:09:02.769Z,86.5
2022-08-27T09:12:02.799Z,86.5
2022-08-27T09:15:03.732Z,86.5
2022-08-27T09:18:02.964Z,87
2022-08-27T09:21:08.977Z,87
2022-08-27T09:24:02.850Z,87
2022-08-27T09:27:02.826Z,87
2022-08-27T09:30:03.425Z,87
2022-08-27T09:33:02.811Z,86.7
2022-08-27T09:36:02.815Z,86.7
2022-08-27T09:39:02.815Z,86.7
2022-08-27T09:42:02.790Z,86.7
2022-08-27T09:45:02.840Z,86.7
2022-08-27T09:48:02.789Z,86.7
2022-08-27T09:51:02.754Z,86.7
2022-08-27T09:54:02.835Z,86.7
2022-08-27T09:57:02.750Z,86.7
2022-08-27T10:00:02.858Z,86.7
2022-08-27T10:03:02.796Z,86.7
2022-08-27T10:06:02.792Z,86.7
2022-08-27T10:09:09.470Z,86.7
2022-08-27T10:12:02.818Z,85.3
2022-08-27T10:15:02.827Z,85.3
2022-08-27T10:18:03.609Z,85.3
2022-08-27T10:21:10.033Z,85.3
2022-08-27T10:24:02.818Z,85.3
2022-08-27T10:27:02.774Z,84.2
2022-08-27T10:30:02.874Z,84.2
2022-08-27T10:33:06.327Z,84.2
2022-08-27T10:36:02.794Z,84.2
2022-08-27T10:39:02.763Z,84.2
2022-08-27T10:42:02.894Z,84.2
2022-08-27T10:45:02.759Z,84.2
2022-08-27T10:48:03.587Z,84.2
2022-08-27T10:51:02.787Z,84.2
2022-08-27T10:54:02.792Z,84.2
2022-08-27T10:57:55.443Z,84.2
2022-08-27T11:00:02.884Z,84.2
2022-08-27T11:03:02.814Z,82.9
2022-08-27T11:06:02.744Z,82.9
2022-08-27T11:09:09.639Z,82.9
2022-08-27T11:12:17.804Z,82.9
2022-08-27T11:15:02.826Z,82.9
2022-08-27T11:18:02.800Z,82.9
2022-08-27T11:21:02.737Z,82.9
2022-08-27T11:24:02.797Z,83.3
2022-08-27T11:27:02.771Z,83.3
2022-08-27T11:30:03.026Z,83.3
2022-08-27T11:33:02.777Z,83.3
2022-08-27T11:36:02.834Z,83.3
2022-08-27T11:39:02.833Z,83.3
2022-08-27T11:42:02.839Z,83.3
2022-08-27T11:45:02.777Z,83.3
2022-08-27T11:48:02.851Z,83.3
2022-08-27T11:51:02.791Z,83.3
2022-08-27T11:54:02.799Z,83.3
2022-08-27T11:57:02.781Z,83.3
2022-08-27T12:00:04.534Z,83.3
2022-08-27T12:03:02.955Z,83.3
2022-08-27T12:06:02.823Z,83.3
2022-08-27T12:09:02.793Z,83.3
2022-08-27T12:12:02.922Z,83.3
2022-08-27T12:15:02.797Z,83.3
2022-08-27T12:18:02.821Z,83.3
2022-08-27T12:21:02.783Z,82.8
2022-08-27T12:24:02.746Z,82.8
2022-08-27T12:27:02.788Z,82.8
2022-08-27T12:30:02.804Z,82.8
2022-08-27T12:33:02.803Z,82.8
2022-08-27T12:36:02.890Z,82.8
2022-08-27T12:39:02.999Z,82.8
2022-08-27T12:42:02.784Z,82.8
2022-08-27T12:45:02.846Z,82.8
2022-08-27T12:48:02.783Z,82.8
2022-08-27T12:51:02.778Z,82.8
2022-08-27T12:54:02.823Z,82.8
2022-08-27T12:57:02.831Z,82.8
2022-08-27T13:00:02.868Z,82.1
2022-08-27T13:03:02.788Z,82.1
2022-08-27T13:06:02.801Z,82.1
2022-08-27T13:09:02.778Z,82.1
2022-08-27T13:12:02.925Z,81.5
2022-08-27T13:15:02.822Z,81.5
2022-08-27T13:18:05.279Z,81.5
2022-08-27T13:21:02.805Z,81.5
2022-08-27T13:24:02.816Z,81.5
2022-08-27T13:27:02.849Z,81.5
2022-08-27T13:30:02.849Z,81.5
2022-08-27T13:33:02.812Z,81.5
2022-08-27T13:36:02.812Z,81.5
2022-08-27T13:39:02.803Z,80.5
2022-08-27T13:42:02.798Z,80.5
2022-08-27T13:45:02.886Z,80.5
2022-08-27T13:48:02.810Z,80.5
2022-08-27T13:51:02.781Z,80.5
2022-08-27T13:54:02.807Z,80.5
2022-08-27T13:57:02.828Z,80.5
2022-08-27T14:00:02.854Z,80.5
2022-08-27T14:03:02.998Z,80.5
2022-08-27T14:06:02.825Z,79.5
2022-08-27T14:09:02.819Z,79.5
2022-08-27T14:12:02.821Z,79.5
2022-08-27T14:15:02.842Z,79.5
2022-08-27T14:18:02.907Z,79.5
2022-08-27T14:21:02.803Z,79.5
2022-08-27T14:24:02.803Z,79.5
2022-08-27T14:27:02.787Z,79.5
2022-08-27T14:30:03.046Z,79.5
2022-08-27T14:33:03.086Z,79.5
2022-08-27T14:36:02.818Z,79.5
2022-08-27T14:39:04.441Z,79.5
2022-08-27T14:42:02.781Z,79.5
2022-08-27T14:45:02.874Z,79.5
2022-08-27T14:48:04.786Z,77
2022-08-27T14:51:02.870Z,77
2022-08-27T14:54:02.819Z,77
2022-08-27T14:57:02.818Z,77.1
2022-08-27T15:00:03.048Z,77.1
2022-08-27T15:03:02.776Z,77.1
2022-08-27T15:06:02.783Z,77.1
2022-08-27T15:09:03.772Z,77.1
2022-08-27T15:12:02.783Z,77.1
2022-08-27T15:15:02.835Z,77.1
2022-08-27T15:18:02.820Z,77.1
2022-08-27T15:21:02.774Z,77.1
2022-08-27T15:24:02.921Z,77.1
2022-08-27T15:27:02.834Z,77.1
2022-08-27T15:30:02.871Z,77.1
2022-08-27T15:33:02.786Z,77.1
2022-08-27T15:36:06.499Z,77.1
2022-08-27T15:39:02.806Z,77.1
2022-08-27T15:42:09.422Z,77.1
2022-08-27T15:45:03.401Z,77.1
2022-08-27T15:48:02.839Z,77.1
2022-08-27T15:51:02.800Z,77.1
2022-08-27T15:54:02.815Z,73.2
2022-08-27T15:57:02.806Z,73.2
2022-08-27T16:00:02.867Z,73.2
2022-08-27T16:03:03.002Z,73.2
2022-08-27T16:06:06.892Z,73.2
2022-08-27T16:09:02.937Z,73.2
2022-08-27T16:12:02.813Z,73.2
2022-08-27T16:15:02.802Z,73.2
2022-08-27T16:18:02.805Z,73.2
2022-08-27T16:21:02.780Z,73.2
2022-08-27T16:24:02.762Z,73.2
2022-08-27T16:27:02.774Z,73.2
2022-08-27T16:30:02.915Z,73.2
2022-08-27T16:33:02.853Z,73.2
2022-08-27T16:36:02.830Z,73.2
2022-08-27T16:39:02.883Z,73.2
2022-08-27T16:42:02.877Z,73.2
2022-08-27T16:45:02.830Z,72.7
2022-08-27T16:48:02.805Z,72.7
2022-08-27T16:51:02.779Z,72.6
2022-08-27T16:54:02.804Z,72.6
2022-08-27T16:57:02.878Z,72.6
2022-08-27T17:00:02.909Z,72.6
2022-08-27T17:03:02.821Z,72.6
2022-08-27T17:06:04.136Z,72.6
2022-08-27T17:09:02.812Z,72.6
2022-08-27T17:12:02.882Z,72.6
2022-08-27T17:15:02.832Z,72.6
2022-08-27T17:18:02.849Z,72.6
2022-08-27T17:21:02.786Z,72.6
2022-08-27T17:24:02.798Z,72.6
2022-08-27T17:27:02.856Z,72.6
2022-08-27T17:30:02.903Z,72.6
2022-08-27T17:33:02.790Z,72.6
2022-08-27T17:36:02.835Z,72.6
2022-08-27T17:39:02.873Z,71.6
2022-08-27T17:42:04.062Z,71.6
2022-08-27T17:45:02.787Z,71.6
2022-08-27T17:48:15.255Z,70.2
2022-08-27T17:51:02.749Z,70.2
2022-08-27T17:54:03.871Z,70.2
2022-08-27T17:57:02.821Z,70.2
2022-08-27T18:00:07.510Z,70.2
2022-08-27T18:03:02.787Z,70.2
2022-08-27T18:06:02.810Z,70.2
2022-08-27T18:09:02.836Z,72.3
2022-08-27T18:12:02.841Z,72.3
2022-08-27T18:15:02.801Z,72.3
2022-08-27T18:18:02.821Z,72.3
2022-08-27T18:21:03.233Z,72.3
2022-08-27T18:24:02.825Z,72.3
2022-08-27T18:27:02.793Z,72.3
2022-08-27T18:30:02.784Z,72.3
2022-08-27T18:33:02.780Z,72.3
2022-08-27T18:36:02.778Z,72.3
2022-08-27T18:39:02.840Z,71.8
2022-08-27T18:42:02.832Z,71.7
2022-08-27T18:45:08.170Z,71.7
2022-08-27T18:48:02.814Z,71.7
2022-08-27T18:51:02.793Z,71.7
2022-08-27T18:54:02.877Z,71.7
2022-08-27T18:57:02.833Z,71.7
2022-08-27T19:00:02.805Z,71.7
2022-08-27T19:03:02.791Z,71.7
2022-08-27T19:06:06.827Z,71.7
2022-08-27T19:09:02.951Z,71.7
2022-08-27T19:12:02.861Z,71.7
2022-08-27T19:15:02.791Z,71.7
2022-08-27T19:18:02.824Z,71.7
2022-08-27T19:21:02.760Z,71.7
2022-08-27T19:24:02.801Z,71.7
2022-08-27T19:27:02.726Z,73.7
2022-08-27T19:30:02.826Z,73.7
2022-08-27T19:33:02.766Z,73.7
2022-08-27T19:36:02.824Z,73.8
2022-08-27T19:39:03.502Z,73.8
2022-08-27T19:42:02.832Z,73.8
2022-08-27T19:45:02.744Z,73.8
2022-08-27T19:48:02.879Z,73.8
2022-08-27T19:51:02.802Z,73.8
2022-08-27T19:54:02.804Z,73.8
2022-08-27T19:57:03.373Z,73.8
2022-08-27T20:00:02.873Z,73.8
2022-08-27T20:03:02.796Z,73.8
2022-08-27T20:06:02.843Z,73.8
2022-08-27T20:09:02.804Z,73.8
2022-08-27T20:12:02.825Z,73.7
2022-08-27T20:15:04.099Z,73.7
2022-08-27T20:18:02.786Z,73.7
2022-08-27T20:21:08.517Z,73.7
2022-08-27T20:24:02.796Z,73.7
2022-08-27T20:27:02.817Z,73.8
2022-08-27T20:30:02.774Z,73.8
2022-08-27T20:33:02.823Z,73.8
2022-08-27T20:36:02.890Z,73.8
2022-08-27T20:39:02.822Z,72.8
2022-08-27T20:42:02.972Z,72.8
2022-08-27T20:45:03.041Z,72.8
2022-08-27T20:48:06.323Z,72.8
2022-08-27T20:51:03.046Z,72.8
2022-08-27T20:54:02.859Z,72.8
2022-08-27T20:57:02.894Z,72.8
2022-08-27T21:00:02.855Z,73.1
2022-08-27T21:03:02.805Z,73.1
2022-08-27T21:06:02.780Z,73.1
2022-08-27T21:09:03.165Z,73.1
2022-08-27T21:12:02.817Z,73.1
2022-08-27T21:15:02.772Z,73.1
2022-08-27T21:18:02.792Z,73.6
2022-08-27T21:21:02.784Z,73.6
2022-08-27T21:24:02.814Z,73.6
2022-08-27T21:27:02.806Z,73.6
2022-08-27T21:30:02.865Z,73.9
2022-08-27T21:33:02.809Z,73.9
2022-08-27T21:36:02.817Z,73.9
2022-08-27T21:39:02.842Z,73.9
2022-08-27T21:42:02.888Z,73.9
2022-08-27T21:45:02.822Z,73.9
2022-08-27T21:48:02.854Z,73.9
2022-08-27T21:51:02.824Z,73.9
2022-08-27T21:54:02.752Z,73.9
2022-08-27T21:57:02.788Z,73.9
2022-08-27T22:00:03.864Z,73.9
2022-08-27T22:03:03.033Z,73.9
2022-08-27T22:06:02.799Z,73.9
2022-08-27T22:09:02.770Z,73.9
2022-08-27T22:12:02.764Z,73.9
2022-08-27T22:15:02.799Z,73.9
2022-08-27T22:18:02.794Z,73.9
2022-08-27T22:21:02.840Z,73.9
2022-08-27T22:24:02.761Z,73.9
2022-08-27T22:27:02.745Z,73.9
2022-08-27T22:30:02.823Z,73.9
2022-08-27T22:33:02.772Z,73.9
2022-08-27T22:36:02.786Z,73.9
2022-08-27T22:39:06.287Z,73.9
2022-08-27T22:42:02.798Z,73.9
2022-08-27T22:45:02.783Z,73.9
2022-08-27T22:48:02.798Z,73.9
2022-08-27T22:51:02.765Z,73.9
2022-08-27T22:54:02.769Z,73.9
2022-08-27T22:57:02.936Z,73.9
2022-08-27T23:00:02.819Z,73.9
2022-08-27T23:03:02.771Z,73.9
2022-08-27T23:06:03.072Z,74.1
2022-08-27T23:09:02.811Z,74.1
2022-08-27T23:12:02.775Z,74.1
2022-08-27T23:15:02.841Z,74.1
2022-08-27T23:18:02.784Z,74.1
2022-08-27T23:21:02.765Z,74.1
2022-08-27T23:24:02.776Z,74.1
2022-08-27T23:27:02.782Z,74.1
2022-08-27T23:30:02.825Z,74.1
2022-08-27T23:33:02.828Z,74.1
2022-08-27T23:36:02.729Z,75.4
2022-08-27T23:39:02.867Z,75.4
2022-08-27T23:42:02.770Z,75.4
2022-08-27T23:45:02.777Z,75.4
2022-08-27T23:48:03.234Z,75.4
2022-08-27T23:51:02.808Z,75.4
2022-08-27T23:54:02.798Z,75.4
2022-08-27T23:57:02.789Z,75.4
